sensor_id;sensor_type;location;lat;lon;timestamp;temperature;humidity
69634;DHT22;56860;51.144;16.954;2024-02-28T00:00:56;8.6;45.0
69634;DHT22;56860;51.144;16.954;2024-02-28T00:01:56;8.6;45.0
69634;DHT22;56860;51.144;16.954;2024-02-28T00:02:56;8.6;45.0
69634;DHT22;56860;51.144;16.954;2024-02-28T00:03:57;8.6;45.1
69634;DHT22;56860;51.144;16.954;2024-02-28T00:04:56;8.6;45.2
69634;DHT22;56860;51.144;16.954;2024-02-28T00:05:56;8.6;44.9
69634;DHT22;56860;51.144;16.954;2024-02-28T00:06:56;8.6;44.9
69634;DHT22;56860;51.144;16.954;2024-02-28T00:07:57;8.6;45.1
69634;DHT22;56860;51.144;16.954;2024-02-28T00:08:56;8.6;45.0
69634;DHT22;56860;51.144;16.954;2024-02-28T00:09:56;8.7;44.8
69634;DHT22;56860;51.144;16.954;2024-02-28T00:10:56;8.7;44.7
69634;DHT22;56860;51.144;16.954;2024-02-28T00:11:56;8.8;44.4
69634;DHT22;56860;51.144;16.954;2024-02-28T00:12:56;8.8;44.3
69634;DHT22;56860;51.144;16.954;2024-02-28T00:13:56;8.7;44.5
69634;DHT22;56860;51.144;16.954;2024-02-28T00:14:56;8.6;44.7
69634;DHT22;56860;51.144;16.954;2024-02-28T00:15:56;8.5;44.9
69634;DHT22;56860;51.144;16.954;2024-02-28T00:16:56;8.4;45.3
69634;DHT22;56860;51.144;16.954;2024-02-28T00:17:56;8.2;45.7
69634;DHT22;56860;51.144;16.954;2024-02-28T00:18:58;8.1;46.1
69634;DHT22;56860;51.144;16.954;2024-02-28T00:19:56;8.1;46.5
69634;DHT22;56860;51.144;16.954;2024-02-28T00:20:56;8.1;46.7
69634;DHT22;56860;51.144;16.954;2024-02-28T00:21:56;8.1;46.6
69634;DHT22;56860;51.144;16.954;2024-02-28T00:22:56;8.1;46.5
69634;DHT22;56860;51.144;16.954;2024-02-28T00:23:57;8.1;46.4
69634;DHT22;56860;51.144;16.954;2024-02-28T00:24:56;8.1;46.7
69634;DHT22;56860;51.144;16.954;2024-02-28T00:25:56;8.2;47.0
69634;DHT22;56860;51.144;16.954;2024-02-28T00:26:56;8.3;46.5
69634;DHT22;56860;51.144;16.954;2024-02-28T00:27:56;8.4;46.1
69634;DHT22;56860;51.144;16.954;2024-02-28T00:28:56;8.4;46.3
69634;DHT22;56860;51.144;16.954;2024-02-28T00:29:56;8.4;46.1
69634;DHT22;56860;51.144;16.954;2024-02-28T00:30:56;8.5;46.1
69634;DHT22;56860;51.144;16.954;2024-02-28T00:31:56;8.5;46.1
69634;DHT22;56860;51.144;16.954;2024-02-28T00:32:56;8.5;46.1
69634;DHT22;56860;51.144;16.954;2024-02-28T00:33:57;8.5;46.0
69634;DHT22;56860;51.144;16.954;2024-02-28T00:34:56;8.6;45.9
69634;DHT22;56860;51.144;16.954;2024-02-28T00:35:56;8.6;45.7
69634;DHT22;56860;51.144;16.954;2024-02-28T00:36:56;8.6;45.5
69634;DHT22;56860;51.144;16.954;2024-02-28T00:37:56;8.7;45.7
69634;DHT22;56860;51.144;16.954;2024-02-28T00:38:56;8.6;45.5
69634;DHT22;56860;51.144;16.954;2024-02-28T00:39:57;8.6;45.5
69634;DHT22;56860;51.144;16.954;2024-02-28T00:40:56;8.6;45.5
69634;DHT22;56860;51.144;16.954;2024-02-28T00:41:58;8.6;45.4
69634;DHT22;56860;51.144;16.954;2024-02-28T00:42:57;8.6;45.5
69634;DHT22;56860;51.144;16.954;2024-02-28T00:43:56;8.7;45.3
69634;DHT22;56860;51.144;16.954;2024-02-28T00:44:56;8.7;45.4
69634;DHT22;56860;51.144;16.954;2024-02-28T00:45:56;8.7;45.3
69634;DHT22;56860;51.144;16.954;2024-02-28T00:46:56;8.7;45.2
69634;DHT22;56860;51.144;16.954;2024-02-28T00:47:56;8.8;45.4
69634;DHT22;56860;51.144;16.954;2024-02-28T00:48:57;8.8;45.4
69634;DHT22;56860;51.144;16.954;2024-02-28T00:49:57;8.8;45.3
69634;DHT22;56860;51.144;16.954;2024-02-28T00:50:57;8.8;45.1
69634;DHT22;56860;51.144;16.954;2024-02-28T00:51:57;8.8;45.0
69634;DHT22;56860;51.144;16.954;2024-02-28T00:52:57;8.8;45.1
69634;DHT22;56860;51.144;16.954;2024-02-28T00:53:57;8.8;45.1
69634;DHT22;56860;51.144;16.954;2024-02-28T00:54:57;8.8;45.0
69634;DHT22;56860;51.144;16.954;2024-02-28T00:55:57;8.8;44.8
69634;DHT22;56860;51.144;16.954;2024-02-28T00:56:57;8.8;44.7
69634;DHT22;56860;51.144;16.954;2024-02-28T00:57:57;8.8;45.0
69634;DHT22;56860;51.144;16.954;2024-02-28T00:58:57;8.8;45.0
69634;DHT22;56860;51.144;16.954;2024-02-28T00:59:57;8.8;45.1
69634;DHT22;56860;51.144;16.954;2024-02-28T01:00:57;8.8;44.8
69634;DHT22;56860;51.144;16.954;2024-02-28T01:01:57;8.8;44.6
69634;DHT22;56860;51.144;16.954;2024-02-28T01:02:57;8.7;45.0
69634;DHT22;56860;51.144;16.954;2024-02-28T01:03:57;8.6;45.2
69634;DHT22;56860;51.144;16.954;2024-02-28T01:04:57;8.5;45.7
69634;DHT22;56860;51.144;16.954;2024-02-28T01:05:57;8.4;46.1
69634;DHT22;56860;51.144;16.954;2024-02-28T01:06:57;8.2;46.5
69634;DHT22;56860;51.144;16.954;2024-02-28T01:07:57;8.2;46.7
69634;DHT22;56860;51.144;16.954;2024-02-28T01:08:57;8.3;46.3
69634;DHT22;56860;51.144;16.954;2024-02-28T01:09:57;8.3;47.0
69634;DHT22;56860;51.144;16.954;2024-02-28T01:10:57;8.3;46.9
69634;DHT22;56860;51.144;16.954;2024-02-28T01:11:57;8.3;46.9
69634;DHT22;56860;51.144;16.954;2024-02-28T01:12:57;8.4;46.9
69634;DHT22;56860;51.144;16.954;2024-02-28T01:13:57;8.4;46.6
69634;DHT22;56860;51.144;16.954;2024-02-28T01:14:57;8.4;46.4
69634;DHT22;56860;51.144;16.954;2024-02-28T01:15:57;8.4;46.5
69634;DHT22;56860;51.144;16.954;2024-02-28T01:16:57;8.5;46.5
69634;DHT22;56860;51.144;16.954;2024-02-28T01:17:57;8.5;46.4
69634;DHT22;56860;51.144;16.954;2024-02-28T01:18:57;8.5;46.3
69634;DHT22;56860;51.144;16.954;2024-02-28T01:19:57;8.5;46.3
69634;DHT22;56860;51.144;16.954;2024-02-28T01:20:57;8.6;46.4
69634;DHT22;56860;51.144;16.954;2024-02-28T01:21:57;8.6;46.1
69634;DHT22;56860;51.144;16.954;2024-02-28T01:22:57;8.6;46.1
69634;DHT22;56860;51.144;16.954;2024-02-28T01:23:57;8.6;46.1
69634;DHT22;56860;51.144;16.954;2024-02-28T01:24:57;8.6;46.2
69634;DHT22;56860;51.144;16.954;2024-02-28T01:25:57;8.6;46.1
69634;DHT22;56860;51.144;16.954;2024-02-28T01:26:57;8.6;46.3
69634;DHT22;56860;51.144;16.954;2024-02-28T01:27:57;8.5;46.3
69634;DHT22;56860;51.144;16.954;2024-02-28T01:28:57;8.5;46.5
69634;DHT22;56860;51.144;16.954;2024-02-28T01:29:57;8.4;46.6
69634;DHT22;56860;51.144;16.954;2024-02-28T01:30:57;8.3;47.0
69634;DHT22;56860;51.144;16.954;2024-02-28T01:31:57;8.3;47.3
69634;DHT22;56860;51.144;16.954;2024-02-28T01:32:57;8.3;47.1
69634;DHT22;56860;51.144;16.954;2024-02-28T01:33:57;8.2;47.4
69634;DHT22;56860;51.144;16.954;2024-02-28T01:34:57;8.1;47.7
69634;DHT22;56860;51.144;16.954;2024-02-28T01:35:57;8.1;47.9
69634;DHT22;56860;51.144;16.954;2024-02-28T01:36:57;8.1;48.1
69634;DHT22;56860;51.144;16.954;2024-02-28T01:37:57;8.1;48.3
69634;DHT22;56860;51.144;16.954;2024-02-28T01:38:57;8.2;48.4
69634;DHT22;56860;51.144;16.954;2024-02-28T01:39:57;8.2;48.2
69634;DHT22;56860;51.144;16.954;2024-02-28T01:40:57;8.2;48.2
69634;DHT22;56860;51.144;16.954;2024-02-28T01:41:57;8.3;48.0
69634;DHT22;56860;51.144;16.954;2024-02-28T01:43:01;8.3;47.8
69634;DHT22;56860;51.144;16.954;2024-02-28T01:43:57;8.4;47.6
69634;DHT22;56860;51.144;16.954;2024-02-28T01:44:57;8.3;47.7
69634;DHT22;56860;51.144;16.954;2024-02-28T01:45:57;8.2;48.0
69634;DHT22;56860;51.144;16.954;2024-02-28T01:46:57;8.2;48.1
69634;DHT22;56860;51.144;16.954;2024-02-28T01:47:57;8.2;48.2
69634;DHT22;56860;51.144;16.954;2024-02-28T01:48:57;8.1;48.2
69634;DHT22;56860;51.144;16.954;2024-02-28T01:49:57;8.2;48.5
69634;DHT22;56860;51.144;16.954;2024-02-28T01:50:57;8.2;48.5
69634;DHT22;56860;51.144;16.954;2024-02-28T01:51:57;8.2;48.5
69634;DHT22;56860;51.144;16.954;2024-02-28T01:52:57;8.3;48.5
69634;DHT22;56860;51.144;16.954;2024-02-28T01:53:57;8.3;48.3
69634;DHT22;56860;51.144;16.954;2024-02-28T01:54:57;8.4;48.3
69634;DHT22;56860;51.144;16.954;2024-02-28T01:55:57;8.4;48.2
69634;DHT22;56860;51.144;16.954;2024-02-28T01:56:57;8.4;48.0
69634;DHT22;56860;51.144;16.954;2024-02-28T01:57:57;8.4;48.0
69634;DHT22;56860;51.144;16.954;2024-02-28T01:58:57;8.5;48.0
69634;DHT22;56860;51.144;16.954;2024-02-28T01:59:57;8.5;48.0
69634;DHT22;56860;51.144;16.954;2024-02-28T02:00:57;8.5;48.0
69634;DHT22;56860;51.144;16.954;2024-02-28T02:01:57;8.5;48.0
69634;DHT22;56860;51.144;16.954;2024-02-28T02:02:57;8.4;48.0
69634;DHT22;56860;51.144;16.954;2024-02-28T02:03:57;8.4;48.0
69634;DHT22;56860;51.144;16.954;2024-02-28T02:04:57;8.4;48.0
69634;DHT22;56860;51.144;16.954;2024-02-28T02:05:57;8.5;48.0
69634;DHT22;56860;51.144;16.954;2024-02-28T02:06:57;8.5;48.0
69634;DHT22;56860;51.144;16.954;2024-02-28T02:07:57;8.5;48.0
69634;DHT22;56860;51.144;16.954;2024-02-28T02:08:57;8.5;47.8
69634;DHT22;56860;51.144;16.954;2024-02-28T02:09:57;8.5;47.7
69634;DHT22;56860;51.144;16.954;2024-02-28T02:10:57;8.5;47.5
69634;DHT22;56860;51.144;16.954;2024-02-28T02:11:57;8.6;47.8
69634;DHT22;56860;51.144;16.954;2024-02-28T02:13:03;8.6;47.9
69634;DHT22;56860;51.144;16.954;2024-02-28T02:13:57;8.7;47.7
69634;DHT22;56860;51.144;16.954;2024-02-28T02:14:57;8.7;47.7
69634;DHT22;56860;51.144;16.954;2024-02-28T02:15:57;8.7;47.5
69634;DHT22;56860;51.144;16.954;2024-02-28T02:16:57;8.7;47.4
69634;DHT22;56860;51.144;16.954;2024-02-28T02:17:57;8.7;47.3
69634;DHT22;56860;51.144;16.954;2024-02-28T02:18:57;8.7;47.4
69634;DHT22;56860;51.144;16.954;2024-02-28T02:19:57;8.7;47.4
69634;DHT22;56860;51.144;16.954;2024-02-28T02:20:58;8.7;47.4
69634;DHT22;56860;51.144;16.954;2024-02-28T02:21:57;8.7;47.5
69634;DHT22;56860;51.144;16.954;2024-02-28T02:22:57;8.7;47.5
69634;DHT22;56860;51.144;16.954;2024-02-28T02:23:57;8.8;47.5
69634;DHT22;56860;51.144;16.954;2024-02-28T02:24:57;8.8;47.6
69634;DHT22;56860;51.144;16.954;2024-02-28T02:25:57;8.8;47.3
69634;DHT22;56860;51.144;16.954;2024-02-28T02:26:57;8.8;47.2
69634;DHT22;56860;51.144;16.954;2024-02-28T02:27:57;8.7;47.2
69634;DHT22;56860;51.144;16.954;2024-02-28T02:28:57;8.7;46.8
69634;DHT22;56860;51.144;16.954;2024-02-28T02:29:57;8.7;47.2
69634;DHT22;56860;51.144;16.954;2024-02-28T02:30:57;8.7;47.5
69634;DHT22;56860;51.144;16.954;2024-02-28T02:31:57;8.7;47.6
69634;DHT22;56860;51.144;16.954;2024-02-28T02:32:57;8.7;47.6
69634;DHT22;56860;51.144;16.954;2024-02-28T02:35:58;unavailable;unavailable
69634;DHT22;56860;51.144;16.954;2024-02-28T02:36:58;8.5;47.7
69634;DHT22;56860;51.144;16.954;2024-02-28T02:37:57;8.5;48.1
69634;DHT22;56860;51.144;16.954;2024-02-28T02:38:57;8.4;48.3
69634;DHT22;56860;51.144;16.954;2024-02-28T02:39:57;8.4;48.5
69634;DHT22;56860;51.144;16.954;2024-02-28T02:40:57;8.4;48.5
69634;DHT22;56860;51.144;16.954;2024-02-28T02:41:57;8.3;48.6
69634;DHT22;56860;51.144;16.954;2024-02-28T02:42:57;8.2;48.8
69634;DHT22;56860;51.144;16.954;2024-02-28T02:43:57;8.1;49.2
69634;DHT22;56860;51.144;16.954;2024-02-28T02:44:57;8.0;49.4
69634;DHT22;56860;51.144;16.954;2024-02-28T02:45:57;8.0;49.9
69634;DHT22;56860;51.144;16.954;2024-02-28T02:46:57;8.0;50.1
69634;DHT22;56860;51.144;16.954;2024-02-28T02:47:57;8.0;50.0
69634;DHT22;56860;51.144;16.954;2024-02-28T02:48:57;8.0;50.0
69634;DHT22;56860;51.144;16.954;2024-02-28T02:49:57;8.2;50.1
69634;DHT22;56860;51.144;16.954;2024-02-28T02:50:57;8.2;50.1
69634;DHT22;56860;51.144;16.954;2024-02-28T02:51:57;8.3;49.8
69634;DHT22;56860;51.144;16.954;2024-02-28T02:52:57;8.3;49.7
69634;DHT22;56860;51.144;16.954;2024-02-28T02:53:57;8.3;49.7
69634;DHT22;56860;51.144;16.954;2024-02-28T02:54:57;8.3;49.4
69634;DHT22;56860;51.144;16.954;2024-02-28T02:55:57;8.3;49.5
69634;DHT22;56860;51.144;16.954;2024-02-28T02:56:57;8.3;49.4
69634;DHT22;56860;51.144;16.954;2024-02-28T02:57:57;8.2;49.5
69634;DHT22;56860;51.144;16.954;2024-02-28T02:58:57;8.2;49.6
69634;DHT22;56860;51.144;16.954;2024-02-28T02:59:57;8.2;49.6
69634;DHT22;56860;51.144;16.954;2024-02-28T03:00:57;8.2;49.6
69634;DHT22;56860;51.144;16.954;2024-02-28T03:01:57;8.2;49.6
69634;DHT22;56860;51.144;16.954;2024-02-28T03:02:57;8.2;49.6
69634;DHT22;56860;51.144;16.954;2024-02-28T03:03:57;8.2;49.8
69634;DHT22;56860;51.144;16.954;2024-02-28T03:04:57;8.1;49.4
69634;DHT22;56860;51.144;16.954;2024-02-28T03:05:57;8.1;50.0
69634;DHT22;56860;51.144;16.954;2024-02-28T03:06:57;8.1;50.3
69634;DHT22;56860;51.144;16.954;2024-02-28T03:07:57;8.1;50.2
69634;DHT22;56860;51.144;16.954;2024-02-28T03:08:57;8.1;50.4
69634;DHT22;56860;51.144;16.954;2024-02-28T03:09:57;8.1;50.4
69634;DHT22;56860;51.144;16.954;2024-02-28T03:10:57;8.1;50.4
69634;DHT22;56860;51.144;16.954;2024-02-28T03:11:57;8.0;50.4
69634;DHT22;56860;51.144;16.954;2024-02-28T03:12:57;8.0;50.6
69634;DHT22;56860;51.144;16.954;2024-02-28T03:13:57;8.0;50.9
69634;DHT22;56860;51.144;16.954;2024-02-28T03:14:57;8.0;50.9
69634;DHT22;56860;51.144;16.954;2024-02-28T03:15:57;8.1;50.2
69634;DHT22;56860;51.144;16.954;2024-02-28T03:16:57;8.1;50.7
69634;DHT22;56860;51.144;16.954;2024-02-28T03:17:57;8.2;50.7
69634;DHT22;56860;51.144;16.954;2024-02-28T03:18:57;8.1;50.4
69634;DHT22;56860;51.144;16.954;2024-02-28T03:19:57;8.1;50.4
69634;DHT22;56860;51.144;16.954;2024-02-28T03:20:57;8.1;50.3
69634;DHT22;56860;51.144;16.954;2024-02-28T03:21:57;8.1;49.8
69634;DHT22;56860;51.144;16.954;2024-02-28T03:22:57;8.1;50.4
69634;DHT22;56860;51.144;16.954;2024-02-28T03:23:57;8.2;50.5
69634;DHT22;56860;51.144;16.954;2024-02-28T03:24:57;8.2;50.2
69634;DHT22;56860;51.144;16.954;2024-02-28T03:25:57;8.2;50.1
69634;DHT22;56860;51.144;16.954;2024-02-28T03:26:57;8.3;50.0
69634;DHT22;56860;51.144;16.954;2024-02-28T03:27:57;8.3;49.9
69634;DHT22;56860;51.144;16.954;2024-02-28T03:28:57;8.3;50.0
69634;DHT22;56860;51.144;16.954;2024-02-28T03:29:57;8.3;49.8
69634;DHT22;56860;51.144;16.954;2024-02-28T03:30:57;8.4;49.8
69634;DHT22;56860;51.144;16.954;2024-02-28T03:31:58;8.5;49.9
69634;DHT22;56860;51.144;16.954;2024-02-28T03:32:57;8.5;49.5
69634;DHT22;56860;51.144;16.954;2024-02-28T03:33:57;8.4;49.5
69634;DHT22;56860;51.144;16.954;2024-02-28T03:34:57;8.4;49.4
69634;DHT22;56860;51.144;16.954;2024-02-28T03:35:57;8.4;49.4
69634;DHT22;56860;51.144;16.954;2024-02-28T03:36:57;8.3;49.5
69634;DHT22;56860;51.144;16.954;2024-02-28T03:37:57;8.2;49.6
69634;DHT22;56860;51.144;16.954;2024-02-28T03:38:57;8.1;50.0
69634;DHT22;56860;51.144;16.954;2024-02-28T03:39:58;8.1;50.2
69634;DHT22;56860;51.144;16.954;2024-02-28T03:40:57;8.1;50.4
69634;DHT22;56860;51.144;16.954;2024-02-28T03:41:57;8.0;50.6
69634;DHT22;56860;51.144;16.954;2024-02-28T03:42:57;8.0;50.8
69634;DHT22;56860;51.144;16.954;2024-02-28T03:43:57;8.0;50.9
69634;DHT22;56860;51.144;16.954;2024-02-28T03:44:57;8.1;50.8
69634;DHT22;56860;51.144;16.954;2024-02-28T03:45:57;8.1;50.9
69634;DHT22;56860;51.144;16.954;2024-02-28T03:46:57;8.1;50.9
69634;DHT22;56860;51.144;16.954;2024-02-28T03:47:57;8.1;50.8
69634;DHT22;56860;51.144;16.954;2024-02-28T03:48:57;8.0;51.0
69634;DHT22;56860;51.144;16.954;2024-02-28T03:49:57;7.9;51.4
69634;DHT22;56860;51.144;16.954;2024-02-28T03:50:57;7.8;51.6
69634;DHT22;56860;51.144;16.954;2024-02-28T03:51:57;7.8;51.9
69634;DHT22;56860;51.144;16.954;2024-02-28T03:52:57;7.8;52.0
69634;DHT22;56860;51.144;16.954;2024-02-28T03:53:58;7.7;51.9
69634;DHT22;56860;51.144;16.954;2024-02-28T03:54:57;7.6;52.3
69634;DHT22;56860;51.144;16.954;2024-02-28T03:55:57;7.6;52.6
69634;DHT22;56860;51.144;16.954;2024-02-28T03:56:57;7.5;52.8
69634;DHT22;56860;51.144;16.954;2024-02-28T03:57:57;7.4;53.4
69634;DHT22;56860;51.144;16.954;2024-02-28T03:58:57;7.4;53.7
69634;DHT22;56860;51.144;16.954;2024-02-28T03:59:57;7.4;53.5
69634;DHT22;56860;51.144;16.954;2024-02-28T04:00:57;7.4;53.8
69634;DHT22;56860;51.144;16.954;2024-02-28T04:01:57;7.4;54.0
69634;DHT22;56860;51.144;16.954;2024-02-28T04:02:57;7.4;54.0
69634;DHT22;56860;51.144;16.954;2024-02-28T04:03:57;7.4;54.0
69634;DHT22;56860;51.144;16.954;2024-02-28T04:04:57;7.4;54.0
69634;DHT22;56860;51.144;16.954;2024-02-28T04:05:57;7.4;54.0
69634;DHT22;56860;51.144;16.954;2024-02-28T04:06:57;7.4;54.0
69634;DHT22;56860;51.144;16.954;2024-02-28T04:07:57;7.3;54.0
69634;DHT22;56860;51.144;16.954;2024-02-28T04:08:57;7.3;54.2
69634;DHT22;56860;51.144;16.954;2024-02-28T04:09:57;7.4;54.5
69634;DHT22;56860;51.144;16.954;2024-02-28T04:10:57;7.4;54.5
69634;DHT22;56860;51.144;16.954;2024-02-28T04:11:57;7.4;54.5
69634;DHT22;56860;51.144;16.954;2024-02-28T04:12:57;7.4;54.5
69634;DHT22;56860;51.144;16.954;2024-02-28T04:13:57;7.4;54.3
69634;DHT22;56860;51.144;16.954;2024-02-28T04:14:57;7.3;54.4
69634;DHT22;56860;51.144;16.954;2024-02-28T04:15:57;7.3;54.5
69634;DHT22;56860;51.144;16.954;2024-02-28T04:16:57;7.2;54.8
69634;DHT22;56860;51.144;16.954;2024-02-28T04:17:57;7.2;55.1
69634;DHT22;56860;51.144;16.954;2024-02-28T04:18:57;7.0;55.9
69634;DHT22;56860;51.144;16.954;2024-02-28T04:19:57;7.0;56.6
69634;DHT22;56860;51.144;16.954;2024-02-28T04:20:57;7.0;57.1
69634;DHT22;56860;51.144;16.954;2024-02-28T04:21:57;6.9;57.2
69634;DHT22;56860;51.144;16.954;2024-02-28T04:22:57;6.9;57.3
69634;DHT22;56860;51.144;16.954;2024-02-28T04:23:57;7.0;57.8
69634;DHT22;56860;51.144;16.954;2024-02-28T04:24:57;7.0;57.7
69634;DHT22;56860;51.144;16.954;2024-02-28T04:25:57;7.1;56.6
69634;DHT22;56860;51.144;16.954;2024-02-28T04:26:57;7.1;56.4
69634;DHT22;56860;51.144;16.954;2024-02-28T04:27:57;7.2;56.3
69634;DHT22;56860;51.144;16.954;2024-02-28T04:28:57;7.3;55.9
69634;DHT22;56860;51.144;16.954;2024-02-28T04:29:57;7.3;55.3
69634;DHT22;56860;51.144;16.954;2024-02-28T04:30:57;7.3;55.8
69634;DHT22;56860;51.144;16.954;2024-02-28T04:31:57;7.3;55.8
69634;DHT22;56860;51.144;16.954;2024-02-28T04:32:57;7.4;55.5
69634;DHT22;56860;51.144;16.954;2024-02-28T04:33:57;7.5;55.2
69634;DHT22;56860;51.144;16.954;2024-02-28T04:34:57;7.5;54.5
69634;DHT22;56860;51.144;16.954;2024-02-28T04:35:57;7.4;54.7
69634;DHT22;56860;51.144;16.954;2024-02-28T04:36:57;7.4;54.9
69634;DHT22;56860;51.144;16.954;2024-02-28T04:37:57;7.4;55.0
69634;DHT22;56860;51.144;16.954;2024-02-28T04:38:57;7.5;54.9
69634;DHT22;56860;51.144;16.954;2024-02-28T04:39:57;7.5;54.8
69634;DHT22;56860;51.144;16.954;2024-02-28T04:40:57;7.3;54.8
69634;DHT22;56860;51.144;16.954;2024-02-28T04:41:57;7.3;55.4
69634;DHT22;56860;51.144;16.954;2024-02-28T04:42:57;7.3;55.5
69634;DHT22;56860;51.144;16.954;2024-02-28T04:43:57;7.2;55.6
69634;DHT22;56860;51.144;16.954;2024-02-28T04:44:57;7.2;55.8
69634;DHT22;56860;51.144;16.954;2024-02-28T04:45:57;7.2;55.8
69634;DHT22;56860;51.144;16.954;2024-02-28T04:46:57;7.3;55.9
69634;DHT22;56860;51.144;16.954;2024-02-28T04:47:57;7.4;55.7
69634;DHT22;56860;51.144;16.954;2024-02-28T04:48:57;7.5;55.4
69634;DHT22;56860;51.144;16.954;2024-02-28T04:49:57;7.5;55.1
69634;DHT22;56860;51.144;16.954;2024-02-28T04:50:57;7.5;54.9
69634;DHT22;56860;51.144;16.954;2024-02-28T04:51:57;7.4;54.4
69634;DHT22;56860;51.144;16.954;2024-02-28T04:52:57;7.4;54.9
69634;DHT22;56860;51.144;16.954;2024-02-28T04:53:57;7.5;55.1
69634;DHT22;56860;51.144;16.954;2024-02-28T04:54:57;7.6;55.0
69634;DHT22;56860;51.144;16.954;2024-02-28T04:55:57;7.6;54.8
69634;DHT22;56860;51.144;16.954;2024-02-28T04:56:57;7.7;54.5
69634;DHT22;56860;51.144;16.954;2024-02-28T04:57:57;7.7;54.5
69634;DHT22;56860;51.144;16.954;2024-02-28T04:58:57;7.7;54.4
69634;DHT22;56860;51.144;16.954;2024-02-28T04:59:57;7.7;54.2
69634;DHT22;56860;51.144;16.954;2024-02-28T05:00:57;7.7;54.2
69634;DHT22;56860;51.144;16.954;2024-02-28T05:01:57;7.7;54.1
69634;DHT22;56860;51.144;16.954;2024-02-28T05:02:57;7.6;54.1
69634;DHT22;56860;51.144;16.954;2024-02-28T05:03:57;7.6;54.4
69634;DHT22;56860;51.144;16.954;2024-02-28T05:04:57;7.6;54.3
69634;DHT22;56860;51.144;16.954;2024-02-28T05:05:57;7.7;54.3
69634;DHT22;56860;51.144;16.954;2024-02-28T05:06:57;7.7;54.1
69634;DHT22;56860;51.144;16.954;2024-02-28T05:07:57;7.7;54.0
69634;DHT22;56860;51.144;16.954;2024-02-28T05:08:57;7.7;54.1
69634;DHT22;56860;51.144;16.954;2024-02-28T05:09:57;7.7;54.0
69634;DHT22;56860;51.144;16.954;2024-02-28T05:10:57;7.7;53.9
69634;DHT22;56860;51.144;16.954;2024-02-28T05:11:57;7.8;53.8
69634;DHT22;56860;51.144;16.954;2024-02-28T05:12:57;7.9;53.7
69634;DHT22;56860;51.144;16.954;2024-02-28T05:13:58;8.0;53.4
69634;DHT22;56860;51.144;16.954;2024-02-28T05:14:57;8.0;53.2
69634;DHT22;56860;51.144;16.954;2024-02-28T05:15:57;8.0;53.2
69634;DHT22;56860;51.144;16.954;2024-02-28T05:16:57;8.1;53.1
69634;DHT22;56860;51.144;16.954;2024-02-28T05:17:57;8.1;52.8
69634;DHT22;56860;51.144;16.954;2024-02-28T05:18:57;8.2;52.7
69634;DHT22;56860;51.144;16.954;2024-02-28T05:19:57;8.2;52.4
69634;DHT22;56860;51.144;16.954;2024-02-28T05:20:57;8.2;52.5
69634;DHT22;56860;51.144;16.954;2024-02-28T05:21:57;8.2;52.2
69634;DHT22;56860;51.144;16.954;2024-02-28T05:22:57;8.2;52.2
69634;DHT22;56860;51.144;16.954;2024-02-28T05:23:57;8.2;52.2
69634;DHT22;56860;51.144;16.954;2024-02-28T05:24:58;8.2;51.8
69634;DHT22;56860;51.144;16.954;2024-02-28T05:25:57;8.2;52.1
69634;DHT22;56860;51.144;16.954;2024-02-28T05:26:57;8.2;52.1
69634;DHT22;56860;51.144;16.954;2024-02-28T05:27:57;8.2;52.1
69634;DHT22;56860;51.144;16.954;2024-02-28T05:28:57;8.2;52.2
69634;DHT22;56860;51.144;16.954;2024-02-28T05:29:57;8.2;52.2
69634;DHT22;56860;51.144;16.954;2024-02-28T05:30:57;8.3;52.2
69634;DHT22;56860;51.144;16.954;2024-02-28T05:31:57;8.3;52.0
69634;DHT22;56860;51.144;16.954;2024-02-28T05:32:57;8.3;51.5
69634;DHT22;56860;51.144;16.954;2024-02-28T05:33:57;8.3;51.7
69634;DHT22;56860;51.144;16.954;2024-02-28T05:34:57;8.4;51.8
69634;DHT22;56860;51.144;16.954;2024-02-28T05:35:57;8.5;51.8
69634;DHT22;56860;51.144;16.954;2024-02-28T05:36:57;8.5;51.7
69634;DHT22;56860;51.144;16.954;2024-02-28T05:37:57;8.5;51.6
69634;DHT22;56860;51.144;16.954;2024-02-28T05:38:58;8.6;51.4
69634;DHT22;56860;51.144;16.954;2024-02-28T05:39:57;8.6;51.1
69634;DHT22;56860;51.144;16.954;2024-02-28T05:40:57;8.6;50.9
69634;DHT22;56860;51.144;16.954;2024-02-28T05:41:57;8.6;50.8
69634;DHT22;56860;51.144;16.954;2024-02-28T05:42:57;8.6;50.4
69634;DHT22;56860;51.144;16.954;2024-02-28T05:43:57;8.6;50.7
69634;DHT22;56860;51.144;16.954;2024-02-28T05:44:57;8.5;50.6
69634;DHT22;56860;51.144;16.954;2024-02-28T05:45:58;8.5;50.8
69634;DHT22;56860;51.144;16.954;2024-02-28T05:46:57;8.5;50.9
69634;DHT22;56860;51.144;16.954;2024-02-28T05:47:57;8.4;51.0
69634;DHT22;56860;51.144;16.954;2024-02-28T05:48:57;8.4;51.2
69634;DHT22;56860;51.144;16.954;2024-02-28T05:49:57;8.4;51.2
69634;DHT22;56860;51.144;16.954;2024-02-28T05:50:57;8.4;51.2
69634;DHT22;56860;51.144;16.954;2024-02-28T05:51:57;8.4;51.2
69634;DHT22;56860;51.144;16.954;2024-02-28T05:52:57;8.4;51.1
69634;DHT22;56860;51.144;16.954;2024-02-28T05:53:57;8.5;51.1
69634;DHT22;56860;51.144;16.954;2024-02-28T05:54:57;8.5;51.2
69634;DHT22;56860;51.144;16.954;2024-02-28T05:55:57;8.5;51.1
69634;DHT22;56860;51.144;16.954;2024-02-28T05:56:57;8.5;51.1
69634;DHT22;56860;51.144;16.954;2024-02-28T05:57:57;8.5;51.0
69634;DHT22;56860;51.144;16.954;2024-02-28T05:58:57;8.4;50.9
69634;DHT22;56860;51.144;16.954;2024-02-28T05:59:57;8.5;51.1
69634;DHT22;56860;51.144;16.954;2024-02-28T06:00:57;8.5;51.1
69634;DHT22;56860;51.144;16.954;2024-02-28T06:01:57;8.6;51.0
69634;DHT22;56860;51.144;16.954;2024-02-28T06:02:57;8.6;51.0
69634;DHT22;56860;51.144;16.954;2024-02-28T06:03:57;8.7;51.0
69634;DHT22;56860;51.144;16.954;2024-02-28T06:04:57;8.7;51.1
69634;DHT22;56860;51.144;16.954;2024-02-28T06:05:57;8.7;50.8
69634;DHT22;56860;51.144;16.954;2024-02-28T06:06:57;8.7;50.6
69634;DHT22;56860;51.144;16.954;2024-02-28T06:07:57;8.8;50.4
69634;DHT22;56860;51.144;16.954;2024-02-28T06:08:57;8.8;50.4
69634;DHT22;56860;51.144;16.954;2024-02-28T06:09:57;8.8;50.4
69634;DHT22;56860;51.144;16.954;2024-02-28T06:10:57;8.8;50.1
69634;DHT22;56860;51.144;16.954;2024-02-28T06:11:57;8.8;49.7
69634;DHT22;56860;51.144;16.954;2024-02-28T06:12:57;8.8;50.2
69634;DHT22;56860;51.144;16.954;2024-02-28T06:13:57;8.8;50.1
69634;DHT22;56860;51.144;16.954;2024-02-28T06:14:57;8.8;50.2
69634;DHT22;56860;51.144;16.954;2024-02-28T06:15:57;8.8;50.2
69634;DHT22;56860;51.144;16.954;2024-02-28T06:16:57;8.8;50.2
69634;DHT22;56860;51.144;16.954;2024-02-28T06:17:58;8.8;50.2
69634;DHT22;56860;51.144;16.954;2024-02-28T06:18:57;8.8;50.2
69634;DHT22;56860;51.144;16.954;2024-02-28T06:19:57;8.8;50.2
69634;DHT22;56860;51.144;16.954;2024-02-28T06:20:57;8.8;50.2
69634;DHT22;56860;51.144;16.954;2024-02-28T06:21:57;8.9;50.3
69634;DHT22;56860;51.144;16.954;2024-02-28T06:22:57;8.9;50.3
69634;DHT22;56860;51.144;16.954;2024-02-28T06:23:57;8.9;50.3
69634;DHT22;56860;51.144;16.954;2024-02-28T06:24:57;8.9;50.2
69634;DHT22;56860;51.144;16.954;2024-02-28T06:25:57;8.9;50.3
69634;DHT22;56860;51.144;16.954;2024-02-28T06:26:57;8.9;50.2
69634;DHT22;56860;51.144;16.954;2024-02-28T06:27:57;8.9;50.2
69634;DHT22;56860;51.144;16.954;2024-02-28T06:28:57;9.0;50.2
69634;DHT22;56860;51.144;16.954;2024-02-28T06:29:58;9.0;49.8
69634;DHT22;56860;51.144;16.954;2024-02-28T06:30:57;9.0;50.0
69634;DHT22;56860;51.144;16.954;2024-02-28T06:31:57;9.0;49.9
69634;DHT22;56860;51.144;16.954;2024-02-28T06:32:58;9.0;49.9
69634;DHT22;56860;51.144;16.954;2024-02-28T06:33:58;9.0;49.7